sensor_id;sensor_type;location;lat;lon;timestamp;pressure;altitude;pressure_sealevel;temperature;humidity
68988;BME280;56038;46.080;11.116;2024-03-23T00:55:55;99193.75;;;11.09;100.00
68988;BME280;56038;46.080;11.116;2024-03-23T01:00:56;99185.03;;;10.90;100.00
68988;BME280;56038;46.080;11.116;2024-03-23T01:05:59;99186.75;;;10.91;100.00
68988;BME280;56038;46.080;11.116;2024-03-23T01:11:02;99185.81;;;10.92;100.00
68988;BME280;56038;46.080;11.116;2024-03-23T01:16:04;99181.63;;;10.88;100.00
68988;BME280;56038;46.080;11.116;2024-03-23T01:21:07;99187.84;;;10.86;100.00
68988;BME280;56038;46.080;11.116;2024-03-23T01:26:10;99178.81;;;10.74;100.00
68988;BME280;56038;46.080;11.116;2024-03-23T01:31:11;99185.97;;;10.69;100.00
68988;BME280;56038;46.080;11.116;2024-03-23T01:36:13;99181.22;;;10.58;100.00
68988;BME280;56038;46.080;11.116;2024-03-23T01:41:16;99185.78;;;10.53;100.00
68988;BME280;56038;46.080;11.116;2024-03-23T01:46:18;99189.31;;;10.52;100.00
68988;BME280;56038;46.080;11.116;2024-03-23T01:51:19;99183.66;;;10.42;100.00
68988;BME280;56038;46.080;11.116;2024-03-23T01:56:22;99178.75;;;10.35;100.00
68988;BME280;56038;46.080;11.116;2024-03-23T02:01:24;99177.31;;;10.28;100.00
68988;BME280;56038;46.080;11.116;2024-03-23T02:06:26;99171.41;;;10.23;100.00
68988;BME280;56038;46.080;11.116;2024-03-23T02:11:29;99161.91;;;10.20;100.00
68988;BME280;56038;46.080;11.116;2024-03-23T02:16:31;99167.28;;;10.17;100.00
68988;BME280;56038;46.080;11.116;2024-03-23T02:21:32;99160.72;;;10.07;100.00
68988;BME280;56038;46.080;11.116;2024-03-23T02:26:36;99163.34;;;10.07;100.00
68988;BME280;56038;46.080;11.116;2024-03-23T02:31:37;99154.50;;;10.11;100.00
68988;BME280;56038;46.080;11.116;2024-03-23T02:36:39;99147.50;;;10.11;100.00
68988;BME280;56038;46.080;11.116;2024-03-23T02:41:42;99138.88;;;10.09;100.00
68988;BME280;56038;46.080;11.116;2024-03-23T02:46:43;99131.50;;;9.99;100.00
68988;BME280;56038;46.080;11.116;2024-03-23T02:51:45;99122.50;;;9.85;100.00
68988;BME280;56038;46.080;11.116;2024-03-23T02:56:50;99120.84;;;9.83;100.00
68988;BME280;56038;46.080;11.116;2024-03-23T03:01:51;99117.56;;;9.78;100.00
68988;BME280;56038;46.080;11.116;2024-03-23T03:06:53;99116.00;;;9.74;100.00
68988;BME280;56038;46.080;11.116;2024-03-23T03:11:56;99126.63;;;9.69;100.00
68988;BME280;56038;46.080;11.116;2024-03-23T03:16:58;99121.72;;;9.61;100.00
68988;BME280;56038;46.080;11.116;2024-03-23T03:21:59;99114.63;;;9.43;100.00
68988;BME280;56038;46.080;11.116;2024-03-23T03:27:02;99114.69;;;9.42;100.00
68988;BME280;56038;46.080;11.116;2024-03-23T03:32:05;99107.66;;;9.44;100.00
68988;BME280;56038;46.080;11.116;2024-03-23T03:37:06;99106.09;;;9.40;100.00
68988;BME280;56038;46.080;11.116;2024-03-23T03:42:09;99113.97;;;9.38;100.00
68988;BME280;56038;46.080;11.116;2024-03-23T03:47:11;99100.81;;;9.41;100.00
68988;BME280;56038;46.080;11.116;2024-03-23T03:52:13;99105.25;;;9.39;100.00
68988;BME280;56038;46.080;11.116;2024-03-23T03:57:16;99093.13;;;9.38;100.00
68988;BME280;56038;46.080;11.116;2024-03-23T04:02:17;99093.97;;;9.39;100.00
68988;BME280;56038;46.080;11.116;2024-03-23T04:07:19;99090.69;;;9.34;100.00
68988;BME280;56038;46.080;11.116;2024-03-23T04:12:24;99088.16;;;9.32;100.00
68988;BME280;56038;46.080;11.116;2024-03-23T04:17:26;99084.75;;;9.30;100.00
68988;BME280;56038;46.080;11.116;2024-03-23T04:22:31;99079.44;;;9.33;100.00
68988;BME280;56038;46.080;11.116;2024-03-23T04:27:34;99076.81;;;9.33;100.00
68988;BME280;56038;46.080;11.116;2024-03-23T04:32:36;99069.09;;;9.30;100.00
68988;BME280;56038;46.080;11.116;2024-03-23T04:37:38;99060.41;;;9.31;100.00
68988;BME280;56038;46.080;11.116;2024-03-23T04:42:42;99060.41;;;9.31;100.00
68988;BME280;56038;46.080;11.116;2024-03-23T04:47:44;99056.03;;;9.32;100.00
68988;BME280;56038;46.080;11.116;2024-03-23T04:52:45;99060.34;;;9.33;100.00
68988;BME280;56038;46.080;11.116;2024-03-23T04:57:48;99052.50;;;9.33;100.00
68988;BME280;56038;46.080;11.116;2024-03-23T05:02:50;99047.38;;;9.31;100.00
68988;BME280;56038;46.080;11.116;2024-03-23T05:07:53;99041.47;;;9.26;100.00
68988;BME280;56038;46.080;11.116;2024-03-23T05:12:56;99044.97;;;9.25;100.00
68988;BME280;56038;46.080;11.116;2024-03-23T05:17:57;99041.34;;;9.29;100.00
68988;BME280;56038;46.080;11.116;2024-03-23T05:22:59;99037.59;;;9.14;100.00
68988;BME280;56038;46.080;11.116;2024-03-23T05:28:02;99029.03;;;9.11;100.00
68988;BME280;56038;46.080;11.116;2024-03-23T05:33:04;99031.66;;;9.11;100.00
68988;BME280;56038;46.080;11.116;2024-03-23T05:38:05;99035.22;;;9.08;100.00
68988;BME280;56038;46.080;11.116;2024-03-23T05:43:08;99022.28;;;9.07;100.00
68988;BME280;56038;46.080;11.116;2024-03-23T05:48:10;99017.84;;;9.09;100.00
68988;BME280;56038;46.080;11.116;2024-03-23T05:53:12;99014.19;;;9.13;100.00
68988;BME280;56038;46.080;11.116;2024-03-23T05:58:16;99009.91;;;9.12;100.00
68988;BME280;56038;46.080;11.116;2024-03-23T06:03:18;99009.00;;;9.13;100.00
68988;BME280;56038;46.080;11.116;2024-03-23T06:08:21;99007.84;;;9.20;100.00
68988;BME280;56038;46.080;11.116;2024-03-23T06:13:24;99007.47;;;9.29;100.00
68988;BME280;56038;46.080;11.116;2024-03-23T06:18:30;99002.94;;;9.34;100.00
68988;BME280;56038;46.080;11.116;2024-03-23T06:23:32;99001.81;;;9.40;100.00
68988;BME280;56038;46.080;11.116;2024-03-23T06:28:35;98996.09;;;9.52;100.00
68988;BME280;56038;46.080;11.116;2024-03-23T06:33:37;98995.31;;;9.70;100.00
68988;BME280;56038;46.080;11.116;2024-03-23T06:38:39;98989.16;;;9.91;100.00
68988;BME280;56038;46.080;11.116;2024-03-23T06:43:43;98972.38;;;10.17;100.00
68988;BME280;56038;46.080;11.116;2024-03-23T06:48:44;98967.50;;;10.30;100.00
68988;BME280;56038;46.080;11.116;2024-03-23T06:53:46;98959.72;;;10.47;100.00
68988;BME280;56038;46.080;11.116;2024-03-23T06:58:49;98955.91;;;10.73;100.00
68988;BME280;56038;46.080;11.116;2024-03-23T07:03:51;98951.41;;;10.94;100.00
68988;BME280;56038;46.080;11.116;2024-03-23T07:08:52;98953.44;;;11.24;100.00
68988;BME280;56038;46.080;11.116;2024-03-23T07:13:55;98954.66;;;11.51;100.00
68988;BME280;56038;46.080;11.116;2024-03-23T07:18:57;98951.97;;;11.70;100.00
68988;BME280;56038;46.080;11.116;2024-03-23T07:23:59;98953.94;;;11.84;100.00
68988;BME280;56038;46.080;11.116;2024-03-23T07:29:02;98941.78;;;11.98;100.00
68988;BME280;56038;46.080;11.116;2024-03-23T07:34:03;98943.75;;;12.11;100.00
68988;BME280;56038;46.080;11.116;2024-03-23T07:39:06;98930.88;;;12.39;100.00
68988;BME280;56038;46.080;11.116;2024-03-23T07:44:09;98933.31;;;12.58;100.00
68988;BME280;56038;46.080;11.116;2024-03-23T07:49:11;98928.06;;;12.74;100.00
68988;BME280;56038;46.080;11.116;2024-03-23T07:54:12;98909.69;;;13.05;100.00
68988;BME280;56038;46.080;11.116;2024-03-23T07:59:15;98915.25;;;13.15;99.12
68988;BME280;56038;46.080;11.116;2024-03-23T08:04:19;98906.75;;;13.41;97.88
68988;BME280;56038;46.080;11.116;2024-03-23T08:09:20;98894.84;;;13.64;94.84
68988;BME280;56038;46.080;11.116;2024-03-23T08:14:24;98876.41;;;13.80;93.00
68988;BME280;56038;46.080;11.116;2024-03-23T08:19:26;98873.56;;;13.97;91.35
68988;BME280;56038;46.080;11.116;2024-03-23T08:24:27;98871.59;;;14.15;89.32
68988;BME280;56038;46.080;11.116;2024-03-23T08:29:32;98870.06;;;14.39;86.51
68988;BME280;56038;46.080;11.116;2024-03-23T08:34:33;98853.44;;;14.53;85.03
68988;BME280;56038;46.080;11.116;2024-03-23T08:39:35;98847.09;;;14.70;82.91
68988;BME280;56038;46.080;11.116;2024-03-23T08:44:38;98819.88;;;14.84;82.07
68988;BME280;56038;46.080;11.116;2024-03-23T08:49:39;98807.72;;;15.08;80.39
68988;BME280;56038;46.080;11.116;2024-03-23T08:54:41;98790.25;;;15.45;77.98
68988;BME280;56038;46.080;11.116;2024-03-23T08:59:44;98780.75;;;15.81;76.56
68988;BME280;56038;46.080;11.116;2024-03-23T09:04:46;98762.06;;;15.97;74.02
68988;BME280;56038;46.080;11.116;2024-03-23T09:09:47;98776.81;;;16.23;72.43
68988;BME280;56038;46.080;11.116;2024-03-23T09:14:51;98777.28;;;16.41;70.40
68988;BME280;56038;46.080;11.116;2024-03-23T09:19:53;98761.16;;;16.81;68.84
68988;BME280;56038;46.080;11.116;2024-03-23T09:24:55;98754.69;;;16.85;67.83
68988;BME280;56038;46.080;11.116;2024-03-23T09:29:58;98756.47;;;16.73;67.57
68988;BME280;56038;46.080;11.116;2024-03-23T09:34:59;98748.25;;;17.00;66.92
68988;BME280;56038;46.080;11.116;2024-03-23T09:40:01;98739.88;;;16.95;66.48
68988;BME280;56038;46.080;11.116;2024-03-23T09:45:06;98721.41;;;16.95;65.94
68988;BME280;56038;46.080;11.116;2024-03-23T09:50:12;98706.44;;;17.29;65.22
68988;BME280;56038;46.080;11.116;2024-03-23T09:55:14;98707.97;;;17.76;63.48
68988;BME280;56038;46.080;11.116;2024-03-23T10:00:18;98692.94;;;17.88;61.99
68988;BME280;56038;46.080;11.116;2024-03-23T10:05:20;98685.31;;;18.06;60.57
68988;BME280;56038;46.080;11.116;2024-03-23T10:10:25;98670.78;;;19.15;57.88
68988;BME280;56038;46.080;11.116;2024-03-23T10:15:28;98654.31;;;19.52;56.65
68988;BME280;56038;46.080;11.116;2024-03-23T10:20:30;98636.94;;;19.69;55.83
68988;BME280;56038;46.080;11.116;2024-03-23T10:25:32;98604.88;;;20.30;54.11
68988;BME280;56038;46.080;11.116;2024-03-23T10:30:35;98584.91;;;20.55;53.20
68988;BME280;56038;46.080;11.116;2024-03-23T10:35:37;98581.16;;;21.22;51.31
68988;BME280;56038;46.080;11.116;2024-03-23T10:40:38;98567.88;;;21.67;49.99
68988;BME280;56038;46.080;11.116;2024-03-23T10:45:43;98551.88;;;22.13;48.78
68988;BME280;56038;46.080;11.116;2024-03-23T10:50:45;98540.78;;;23.11;46.90
68988;BME280;56038;46.080;11.116;2024-03-23T10:55:46;98528.09;;;23.55;46.04
68988;BME280;56038;46.080;11.116;2024-03-23T11:00:49;98504.41;;;22.86;44.82
68988;BME280;56038;46.080;11.116;2024-03-23T11:05:51;98492.47;;;22.98;44.95
68988;BME280;56038;46.080;11.116;2024-03-23T11:11:11;98474.28;;;23.52;39.69
68988;BME280;56038;46.080;11.116;2024-03-23T11:16:15;98459.09;;;24.09;42.71
68988;BME280;56038;46.080;11.116;2024-03-23T11:21:51;98450.63;;;24.61;37.05
68988;BME280;56038;46.080;11.116;2024-03-23T11:26:54;98422.00;;;24.47;41.65
68988;BME280;56038;46.080;11.116;2024-03-23T11:31:57;98409.63;;;24.85;40.94
68988;BME280;56038;46.080;11.116;2024-03-23T11:37:04;98409.66;;;25.54;38.10
68988;BME280;56038;46.080;11.116;2024-03-23T11:42:06;98384.75;;;24.54;41.43
68988;BME280;56038;46.080;11.116;2024-03-23T11:47:09;98368.78;;;23.49;42.02
68988;BME280;56038;46.080;11.116;2024-03-23T11:52:11;98356.97;;;23.52;42.15
68988;BME280;56038;46.080;11.116;2024-03-23T11:57:13;98341.28;;;23.49;42.32
68988;BME280;56038;46.080;11.116;2024-03-23T12:02:18;98320.34;;;22.97;42.52
68988;BME280;56038;46.080;11.116;2024-03-23T12:07:20;98297.75;;;23.89;41.32
68988;BME280;56038;46.080;11.116;2024-03-23T12:12:22;98285.25;;;23.81;41.27
68988;BME280;56038;46.080;11.116;2024-03-23T12:17:26;98266.34;;;23.52;41.85
68988;BME280;56038;46.080;11.116;2024-03-23T12:22:28;98228.69;;;24.33;40.59
68988;BME280;56038;46.080;11.116;2024-03-23T12:27:30;98216.53;;;24.54;40.59
68988;BME280;56038;46.080;11.116;2024-03-23T12:32:34;98230.22;;;24.73;40.46
68988;BME280;56038;46.080;11.116;2024-03-23T12:37:35;98219.50;;;25.19;39.59
68988;BME280;56038;46.080;11.116;2024-03-23T12:42:37;98203.88;;;24.70;41.02
68988;BME280;56038;46.080;11.116;2024-03-23T12:47:40;98185.41;;;24.15;40.97
68988;BME280;56038;46.080;11.116;2024-03-23T12:52:42;98185.31;;;23.69;41.39
68988;BME280;56038;46.080;11.116;2024-03-23T12:57:44;98183.94;;;24.58;38.86
68988;BME280;56038;46.080;11.116;2024-03-23T13:02:47;98177.41;;;24.46;37.91
68988;BME280;56038;46.080;11.116;2024-03-23T13:07:48;98177.84;;;25.10;37.03
68988;BME280;56038;46.080;11.116;2024-03-23T13:12:50;98162.66;;;24.88;37.28
68988;BME280;56038;46.080;11.116;2024-03-23T13:17:53;98162.81;;;23.16;38.21
68988;BME280;56038;46.080;11.116;2024-03-23T13:22:55;98163.53;;;22.69;38.24
68988;BME280;56038;46.080;11.116;2024-03-23T13:27:56;98141.06;;;23.44;37.43
68988;BME280;56038;46.080;11.116;2024-03-23T13:32:59;98139.25;;;22.64;38.73
68988;BME280;56038;46.080;11.116;2024-03-23T13:38:01;98119.63;;;22.74;39.05
68988;BME280;56038;46.080;11.116;2024-03-23T13:43:03;98119.47;;;22.26;39.52
68988;BME280;56038;46.080;11.116;2024-03-23T13:48:07;98098.84;;;22.45;39.84
68988;BME280;56038;46.080;11.116;2024-03-23T13:53:08;98091.34;;;22.56;39.61
68988;BME280;56038;46.080;11.116;2024-03-23T13:58:10;98091.72;;;22.13;40.27
68988;BME280;56038;46.080;11.116;2024-03-23T14:03:14;98071.34;;;21.71;41.67
68988;BME280;56038;46.080;11.116;2024-03-23T14:08:15;98072.72;;;20.39;44.92
68988;BME280;56038;46.080;11.116;2024-03-23T14:13:17;98084.94;;;19.33;49.04
68988;BME280;56038;46.080;11.116;2024-03-23T14:18:20;98090.47;;;18.75;52.46
68988;BME280;56038;46.080;11.116;2024-03-23T14:23:22;98126.16;;;18.13;62.64
68988;BME280;56038;46.080;11.116;2024-03-23T14:28:24;98114.91;;;17.72;68.96
68988;BME280;56038;46.080;11.116;2024-03-23T14:33:28;98125.41;;;17.13;77.76
68988;BME280;56038;46.080;11.116;2024-03-23T14:38:29;98138.38;;;16.95;78.68
68988;BME280;56038;46.080;11.116;2024-03-23T14:43:31;98198.28;;;16.83;83.69
68988;BME280;56038;46.080;11.116;2024-03-23T14:48:34;98196.63;;;16.50;85.83
68988;BME280;56038;46.080;11.116;2024-03-23T14:53:37;98166.28;;;16.35;83.05
68988;BME280;56038;46.080;11.116;2024-03-23T14:58:40;98174.31;;;16.33;86.89
68988;BME280;56038;46.080;11.116;2024-03-23T15:03:43;98150.94;;;16.61;89.25
68988;BME280;56038;46.080;11.116;2024-03-23T15:08:45;98161.31;;;16.73;91.46
68988;BME280;56038;46.080;11.116;2024-03-23T15:13:49;98156.16;;;16.93;97.18
68988;BME280;56038;46.080;11.116;2024-03-23T15:18:52;98159.13;;;17.09;100.00
68988;BME280;56038;46.080;11.116;2024-03-23T15:23:54;98157.97;;;17.32;95.28
68988;BME280;56038;46.080;11.116;2024-03-23T15:28:56;98170.53;;;17.50;91.94
68988;BME280;56038;46.080;11.116;2024-03-23T15:34:13;98173.03;;;17.51;94.76
68988;BME280;56038;46.080;11.116;2024-03-23T15:39:15;98174.28;;;17.47;94.13
68988;BME280;56038;46.080;11.116;2024-03-23T15:44:17;98175.94;;;17.39;90.37
68988;BME280;56038;46.080;11.116;2024-03-23T15:49:20;98185.13;;;17.14;90.73
68988;BME280;56038;46.080;11.116;2024-03-23T15:54:21;98186.91;;;16.83;92.12
68988;BME280;56038;46.080;11.116;2024-03-23T15:59:23;98205.69;;;16.68;94.29
68988;BME280;56038;46.080;11.116;2024-03-23T16:04:26;98204.66;;;16.28;100.00
68988;BME280;56038;46.080;11.116;2024-03-23T16:09:27;98222.25;;;15.73;100.00
68988;BME280;56038;46.080;11.116;2024-03-23T16:14:29;98239.50;;;15.32;100.00
68988;BME280;56038;46.080;11.116;2024-03-23T16:19:32;98237.50;;;14.89;100.00
68988;BME280;56038;46.080;11.116;2024-03-23T16:24:34;98251.53;;;14.66;100.00
68988;BME280;56038;46.080;11.116;2024-03-23T16:29:35;98256.34;;;14.24;100.00
68988;BME280;56038;46.080;11.116;2024-03-23T16:34:38;98253.16;;;14.08;100.00
68988;BME280;56038;46.080;11.116;2024-03-23T16:39:40;98268.59;;;13.76;100.00
68988;BME280;56038;46.080;11.116;2024-03-23T16:44:41;98276.06;;;13.57;100.00
68988;BME280;56038;46.080;11.116;2024-03-23T16:49:45;98298.53;;;13.35;100.00
68988;BME280;56038;46.080;11.116;2024-03-23T16:54:46;98300.59;;;13.17;100.00
68988;BME280;56038;46.080;11.116;2024-03-23T16:59:48;98299.34;;;13.10;100.00
68988;BME280;56038;46.080;11.116;2024-03-23T17:04:51;98301.00;;;12.99;100.00
68988;BME280;56038;46.080;11.116;2024-03-23T17:09:52;98301.84;;;12.99;100.00
68988;BME280;56038;46.080;11.116;2024-03-23T17:14:54;98313.38;;;12.97;100.00
68988;BME280;56038;46.080;11.116;2024-03-23T17:20:00;98321.41;;;12.81;100.00
68988;BME280;56038;46.080;11.116;2024-03-23T17:25:03;98326.94;;;12.76;98.68
68988;BME280;56038;46.080;11.116;2024-03-23T17:30:06;98332.91;;;12.66;99.02
68988;BME280;56038;46.080;11.116;2024-03-23T17:35:10;98342.81;;;12.60;99.71
68988;BME280;56038;46.080;11.116;2024-03-23T17:40:11;98350.16;;;12.55;96.45
68988;BME280;56038;46.080;11.116;2024-03-23T17:45:13;98355.59;;;12.52;95.28
68988;BME280;56038;46.080;11.116;2024-03-23T17:50:17;98363.56;;;12.51;95.59
68988;BME280;56038;46.080;11.116;2024-03-23T17:55:19;98366.06;;;12.52;94.60
68988;BME280;56038;46.080;11.116;2024-03-23T18:00:21;98372.88;;;12.55;94.11
68988;BME280;56038;46.080;11.116;2024-03-23T18:05:24;98381.97;;;12.49;93.76
68988;BME280;56038;46.080;11.116;2024-03-23T18:10:26;98394.41;;;12.46;93.70
68988;BME280;56038;46.080;11.116;2024-03-23T18:15:27;98401.25;;;12.48;92.04
68988;BME280;56038;46.080;11.116;2024-03-23T18:20:30;98404.81;;;12.47;91.63
68988;BME280;56038;46.080;11.116;2024-03-23T18:25:32;98403.88;;;12.48;90.41
68988;BME280;56038;46.080;11.116;2024-03-23T18:30:34;98404.88;;;12.46;90.51
68988;BME280;56038;46.080;11.116;2024-03-23T18:35:36;98419.22;;;12.40;89.63
68988;BME280;56038;46.080;11.116;2024-03-23T18:40:44;98426.91;;;12.29;88.17
68988;BME280;56038;46.080;11.116;2024-03-23T18:45:46;98418.09;;;12.30;87.60
68988;BME280;56038;46.080;11.116;2024-03-23T18:50:49;98443.84;;;12.23;87.11
68988;BME280;56038;46.080;11.116;2024-03-23T18:55:52;98431.88;;;12.19;86.03
68988;BME280;56038;46.080;11.116;2024-03-23T19:00:58;98427.19;;;12.10;85.01
68988;BME280;56038;46.080;11.116;2024-03-23T19:06:02;98434.69;;;12.02;84.37
68988;BME280;56038;46.080;11.116;2024-03-23T19:11:04;98443.94;;;11.93;84.49
68988;BME280;56038;46.080;11.116;2024-03-23T19:16:06;98447.13;;;11.84;84.75
68988;BME280;56038;46.080;11.116;2024-03-23T19:21:09;98456.41;;;11.74;84.09
68988;BME280;56038;46.080;11.116;2024-03-23T19:26:10;98454.31;;;11.65;84.10
68988;BME280;56038;46.080;11.116;2024-03-23T19:31:12;98457.50;;;11.56;84.13
68988;BME280;56038;46.080;11.116;2024-03-23T19:36:17;98471.09;;;11.47;84.37
68988;BME280;56038;46.080;11.116;2024-03-23T19:41:19;98476.78;;;11.39;84.41
68988;BME280;56038;46.080;11.116;2024-03-23T19:46:21;98478.72;;;11.35;85.07
68988;BME280;56038;46.080;11.116;2024-03-23T19:51:25;98477.66;;;11.24;85.07
68988;BME280;56038;46.080;11.116;2024-03-23T19:56:26;98502.53;;;11.15;85.22
68988;BME280;56038;46.080;11.116;2024-03-23T20:01:28;98497.75;;;11.07;84.85
68988;BME280;56038;46.080;11.116;2024-03-23T20:06:31;98506.16;;;11.13;86.36
68988;BME280;56038;46.080;11.116;2024-03-23T20:11:33;98521.38;;;11.06;85.91
68988;BME280;56038;46.080;11.116;2024-03-23T20:16:35;98516.91;;;10.92;86.64
68988;BME280;56038;46.080;11.116;2024-03-23T20:21:39;98529.44;;;10.86;86.67
68988;BME280;56038;46.080;11.116;2024-03-23T20:26:40;98524.66;;;10.78;86.74
68988;BME280;56038;46.080;11.116;2024-03-23T20:31:42;98527.66;;;10.70;87.15
68988;BME280;56038;46.080;11.116;2024-03-23T20:36:45;98541.16;;;10.63;86.99
68988;BME280;56038;46.080;11.116;2024-03-23T20:41:47;98537.84;;;10.59;86.76
68988;BME280;56038;46.080;11.116;2024-03-23T20:46:48;98546.00;;;10.53;85.97
68988;BME280;56038;46.080;11.116;2024-03-23T20:51:52;98546.94;;;10.52;85.41
68988;BME280;56038;46.080;11.116;2024-03-23T20:56:54;98545.31;;;10.49;85.55
68988;BME280;56038;46.080;11.116;2024-03-23T21:01:56;98547.19;;;10.47;84.73
68988;BME280;56038;46.080;11.116;2024-03-23T21:06:59;98551.81;;;10.42;84.72
68988;BME280;56038;46.080;11.116;2024-03-23T21:12:01;98553.72;;;10.39;85.31
68988;BME280;56038;46.080;11.116;2024-03-23T21:17:03;98554.81;;;10.35;85.84
68988;BME280;56038;46.080;11.116;2024-03-23T21:22:06;98556.81;;;10.30;85.89
68988;BME280;56038;46.080;11.116;2024-03-23T21:27:08;98560.53;;;10.26;86.41
68988;BME280;56038;46.080;11.116;2024-03-23T21:32:09;98566.16;;;10.16;85.59
68988;BME280;56038;46.080;11.116;2024-03-23T21:37:12;98567.56;;;10.06;85.26
68988;BME280;56038;46.080;11.116;2024-03-23T21:42:14;98573.69;;;10.05;85.08
68988;BME280;56038;46.080;11.116;2024-03-23T21:47:16;98575.22;;;10.09;85.00
68988;BME280;56038;46.080;11.116;2024-03-23T21:52:20;98576.22;;;10.07;84.11
68988;BME280;56038;46.080;11.116;2024-03-23T21:57:21;98582.59;;;10.01;83.80
68988;BME280;56038;46.080;11.116;2024-03-23T22:02:24;98576.63;;;9.99;83.99
68988;BME280;56038;46.080;11.116;2024-03-23T22:07:27;98563.09;;;9.91;84.51
68988;BME280;56038;46.080;11.116;2024-03-23T22:12:30;98564.94;;;9.89;83.89
68988;BME280;56038;46.080;11.116;2024-03-23T22:17:32;98565.72;;;9.91;84.38
68988;BME280;56038;46.080;11.116;2024-03-23T22:22:35;98554.75;;;9.84;84.53
68988;BME280;56038;46.080;11.116;2024-03-23T22:27:37;98557.59;;;9.80;82.88
68988;BME280;56038;46.080;11.116;2024-03-23T22:32:38;98563.78;;;9.77;82.92
68988;BME280;56038;46.080;11.116;2024-03-23T22:37:42;98563.09;;;9.74;82.05
68988;BME280;56038;46.080;11.116;2024-03-23T22:42:43;98556.44;;;9.68;82.99
68988;BME280;56038;46.080;11.116;2024-03-23T22:47:45;98540.31;;;9.60;83.69
68988;BME280;56038;46.080;11.116;2024-03-23T22:52:48;98540.72;;;9.52;83.85
68988;BME280;56038;46.080;11.116;2024-03-23T22:57:50;98542.75;;;9.46;83.49
68988;BME280;56038;46.080;11.116;2024-03-23T23:02:51;98549.03;;;9.42;83.58
68988;BME280;56038;46.080;11.116;2024-03-23T23:07:54;98538.53;;;9.43;82.53
68988;BME280;56038;46.080;11.116;2024-03-23T23:12:56;98536.78;;;9.44;82.26
68988;BME280;56038;46.080;11.116;2024-03-23T23:17:58;98533.19;;;9.46;82.72
68988;BME280;56038;46.080;11.116;2024-03-23T23:23:01;98532.56;;;9.41;82.18
68988;BME280;56038;46.080;11.116;2024-03-23T23:28:03;98524.50;;;9.46;81.70
68988;BME280;56038;46.080;11.116;2024-03-23T23:33:05;98533.81;;;9.51;80.52
68988;BME280;56038;46.080;11.116;2024-03-23T23:38:08;98534.50;;;9.55;79.82
68988;BME280;56038;46.080;11.116;2024-03-23T23:43:10;98544.09;;;9.54;80.58
68988;BME280;56038;46.080;11.116;2024-03-23T23:48:12;98549.44;;;9.51;79.99
68988;BME280;56038;46.080;11.116;2024-03-23T23:53:15;98544.84;;;9.39;80.54
68988;BME280;56038;46.080;11.116;2024-03-23T23:58:17;98544.06;;;9.37;81.97
